Time;durP1;ratioP1;P1;durP2;ratioP2;P2;SDS_P1;SDS_P2;PMS_P1;PMS_P2;Temp;Humidity;BMP_temperature;BMP_pressure;BME280_temperature;BME280_humidity;BME280_pressure;Samples;Min_cycle;Max_cycle;Signal;HPM_P1;HPM_P2
2023/08/16 00:00:45;;;;;;;5.47;2.90;;;;;;;16.88;76.07;102093.63;7405773;19;19910;-78
2023/08/16 00:03:13;;;;;;;5.15;3.40;;;;;;;16.83;76.68;102098.81;7404778;19;19922;-78
2023/08/16 00:05:44;;;;;;;5.10;3.60;;;;;;;16.82;76.73;102084.34;7403543;19;19938;-77
2023/08/16 00:08:13;;;;;;;9.73;3.40;;;;;;;16.78;77.18;102088.47;7409267;19;20389;-78
2023/08/16 00:10:41;;;;;;;9.02;3.85;;;;;;;16.75;76.86;102091.56;7403783;19;19962;-78
2023/08/16 00:13:12;;;;;;;5.55;3.15;;;;;;;16.70;77.44;102086.69;7405621;19;19937;-78
2023/08/16 00:15:41;;;;;;;7.28;2.95;;;;;;;16.66;77.28;102087.25;7404673;19;19951;-78
2023/08/16 00:18:10;;;;;;;5.18;3.08;;;;;;;16.63;77.73;102084.91;7406097;19;19915;-78
2023/08/16 00:20:38;;;;;;;6.68;3.58;;;;;;;16.60;77.40;102083.41;7403805;19;19922;-79
2023/08/16 00:23:07;;;;;;;7.68;3.13;;;;;;;16.57;77.19;102072.88;7405298;19;19941;-78
2023/08/16 00:25:36;;;;;;;3.85;2.88;;;;;;;16.52;77.15;102078.03;7405718;19;19943;-78
2023/08/16 00:28:04;;;;;;;4.50;3.08;;;;;;;16.51;77.11;102072.75;7405917;19;20340;-78
2023/08/16 00:30:35;;;;;;;5.13;3.58;;;;;;;16.49;77.33;102075.66;7405292;19;19919;-78
2023/08/16 00:33:04;;;;;;;4.50;3.08;;;;;;;16.45;77.59;102077.06;7405074;19;19919;-79
2023/08/16 00:35:33;;;;;;;4.78;3.13;;;;;;;16.44;77.34;102080.00;7405470;19;20317;-78
2023/08/16 00:38:01;;;;;;;4.43;3.38;;;;;;;16.42;77.17;102072.00;7403286;19;19918;-78
2023/08/16 00:40:31;;;;;;;5.80;3.03;;;;;;;16.41;77.36;102075.75;7403926;19;19923;-78
2023/08/16 00:42:59;;;;;;;6.93;3.17;;;;;;;16.38;77.27;102070.69;7405158;19;19915;-79
2023/08/16 00:45:28;;;;;;;4.35;3.03;;;;;;;16.34;77.49;102077.53;7405052;19;19918;-78
2023/08/16 00:47:59;;;;;;;7.47;3.45;;;;;;;16.32;77.73;102090.47;7405257;19;19922;-78
2023/08/16 00:50:28;;;;;;;5.97;3.50;;;;;;;16.32;78.18;102088.59;7404127;19;19911;-78
2023/08/16 00:52:57;;;;;;;9.48;3.72;;;;;;;16.37;78.11;102088.03;7404997;19;19910;-78
2023/08/16 00:55:26;;;;;;;7.88;3.75;;;;;;;16.38;78.42;102088.88;7404349;19;19911;-78
2023/08/16 00:57:56;;;;;;;7.53;3.90;;;;;;;16.38;78.34;102087.00;7404085;19;20413;-78
2023/08/16 01:00:25;;;;;;;7.25;3.90;;;;;;;16.40;78.56;102093.09;7404838;19;20747;-78
2023/08/16 01:02:54;;;;;;;6.10;4.10;;;;;;;16.43;78.62;102089.19;7404312;19;19934;-79
2023/08/16 01:05:25;;;;;;;8.80;4.53;;;;;;;16.46;78.85;102091.50;7404537;19;20284;-78
2023/08/16 01:07:54;;;;;;;;;;;;;;;16.25;81.06;102090.38;7409550;19;19926;-79
2023/08/16 01:10:27;;;;;;;7.90;4.03;;;;;;;16.45;78.72;102097.97;7403946;19;19946;-79
2023/08/16 01:13:05;;;;;;;9.82;4.38;;;;;;;16.48;78.95;102098.44;7403585;19;19914;-79
2023/08/16 01:15:42;;;;;;;6.60;4.15;;;;;;;16.49;78.77;102104.72;7403336;19;20021;-78
2023/08/16 01:18:11;;;;;;;;;;;;;;;16.27;81.17;102112.75;7406770;19;19979;-78
2023/08/16 01:20:44;;;;;;;;;;;;;;;16.22;81.41;102115.19;7405708;19;19914;-78
2023/08/16 01:23:24;;;;;;;10.63;3.95;;;;;;;16.40;79.11;102114.00;7404147;19;19929;-78
2023/08/16 01:25:59;;;;;;;7.57;3.95;;;;;;;16.39;78.57;102115.91;7403271;19;19918;-78
2023/08/16 01:28:32;;;;;;;7.63;3.55;;;;;;;16.38;79.12;102121.53;7403056;19;19918;-78
2023/08/16 01:31:05;;;;;;;6.47;3.58;;;;;;;16.33;79.04;102113.91;7402932;19;19934;-79
2023/08/16 01:33:34;;;;;;;8.23;4.25;;;;;;;16.29;79.28;102110.72;7404150;19;20280;-79
2023/08/16 01:36:02;;;;;;;7.82;4.00;;;;;;;16.23;78.77;102114.16;7403689;19;19929;-78
2023/08/16 01:38:31;;;;;;;6.85;3.63;;;;;;;16.20;78.77;102110.97;7403936;19;20363;-78
2023/08/16 01:41:04;;;;;;;6.47;3.92;;;;;;;16.18;79.42;102113.03;7402161;19;19918;-78
2023/08/16 01:43:36;;;;;;;6.57;3.97;;;;;;;16.13;79.54;102116.31;7403928;19;19938;-78
2023/08/16 01:46:07;;;;;;;5.60;3.63;;;;;;;16.09;79.41;102117.69;7405543;19;19910;-78
2023/08/16 01:48:36;;;;;;;7.13;4.32;;;;;;;16.07;79.63;102129.78;7405956;19;19962;-79
2023/08/16 01:51:05;;;;;;;9.02;4.38;;;;;;;16.06;79.96;102130.78;7404916;19;20244;-78
2023/08/16 01:53:35;;;;;;;6.95;4.28;;;;;;;16.04;79.92;102128.28;7407352;19;19931;-79
2023/08/16 01:56:04;;;;;;;5.05;3.38;;;;;;;15.97;79.48;102137.31;7404770;19;19923;-79
2023/08/16 01:58:33;;;;;;;5.22;3.17;;;;;;;15.88;78.62;102133.81;7405172;19;19949;-79
2023/08/16 02:01:04;;;;;;;5.85;3.50;;;;;;;15.79;78.09;102127.59;7404541;19;19934;-78
2023/08/16 02:03:33;;;;;;;7.65;3.35;;;;;;;15.68;78.30;102127.19;7405938;19;19915;-78
2023/08/16 02:06:01;;;;;;;4.68;2.83;;;;;;;15.57;78.07;102141.19;7403326;19;19925;-78
2023/08/16 02:08:30;;;;;;;3.65;2.70;;;;;;;15.47;78.44;102125.06;7406161;19;19922;-78
2023/08/16 02:10:58;;;;;;;5.13;3.00;;;;;;;15.42;78.08;102125.59;7401890;19;19965;-78
2023/08/16 02:13:27;;;;;;;3.58;2.85;;;;;;;15.38;78.01;102126.97;7401643;19;19922;-78
2023/08/16 02:16:04;;;;;;;5.40;3.28;;;;;;;15.34;78.15;102128.38;7401811;19;20272;-78
2023/08/16 02:18:34;;;;;;;4.75;3.60;;;;;;;15.34;78.29;102128.38;7399670;19;19917;-78
2023/08/16 02:21:03;;;;;;;5.85;3.50;;;;;;;15.30;78.29;102135.16;7401953;19;19958;-78
2023/08/16 02:23:32;;;;;;;6.30;3.40;;;;;;;15.25;78.38;102132.13;7401460;19;19978;-79
2023/08/16 02:26:00;;;;;;;5.75;3.55;;;;;;;15.21;78.81;102128.09;7401019;19;19922;-78
2023/08/16 02:28:29;;;;;;;4.95;3.17;;;;;;;15.21;78.91;102129.94;7402507;19;20339;-79
2023/08/16 02:31:08;;;;;;;5.38;3.90;;;;;;;15.15;78.94;102123.34;7410443;19;19938;-79
2023/08/16 02:33:37;;;;;;;7.43;4.07;;;;;;;15.22;78.83;102127.06;7411725;19;20288;-79
2023/08/16 02:36:06;;;;;;;6.78;4.40;;;;;;;15.24;79.10;102130.44;7408116;19;19942;-78
2023/08/16 02:38:35;;;;;;;6.82;4.22;;;;;;;15.21;79.32;102124.53;7407990;19;19935;-79
2023/08/16 02:41:04;;;;;;;9.23;4.75;;;;;;;15.19;79.45;102124.69;7406720;19;19934;-79
2023/08/16 02:43:33;;;;;;;10.45;4.55;;;;;;;15.20;79.02;102118.25;7408101;19;20411;-78
2023/08/16 02:46:02;;;;;;;6.07;3.88;;;;;;;15.22;78.96;102126.22;7407531;19;19915;-78
2023/08/16 02:48:33;;;;;;;7.95;3.90;;;;;;;15.22;79.39;102126.22;7407989;19;19922;-78
2023/08/16 02:51:01;;;;;;;6.43;4.20;;;;;;;15.18;79.44;102131.16;7407537;19;19950;-78
2023/08/16 02:53:30;;;;;;;7.95;4.32;;;;;;;15.18;79.55;102133.03;7407584;19;20247;-78
2023/08/16 02:55:59;;;;;;;7.35;4.53;;;;;;;15.14;79.60;102129.81;7407465;19;19926;-78
2023/08/16 02:58:27;;;;;;;6.53;3.67;;;;;;;15.14;80.35;102128.97;7406532;19;19923;-78
2023/08/16 03:00:56;;;;;;;6.47;4.25;;;;;;;15.14;80.50;102131.69;7407182;19;20620;-78
2023/08/16 03:03:25;;;;;;;5.38;4.20;;;;;;;15.16;80.10;102133.19;7407302;19;19924;-78
2023/08/16 03:05:56;;;;;;;6.75;4.22;;;;;;;15.17;79.97;102125.91;7408723;19;19911;-78
2023/08/16 03:08:25;;;;;;;7.32;4.60;;;;;;;15.17;79.89;102128.63;7405825;19;19939;-78
2023/08/16 03:10:54;;;;;;;8.38;4.43;;;;;;;15.20;80.34;102123.66;7406939;19;19915;-78
2023/08/16 03:13:22;;;;;;;6.90;4.63;;;;;;;15.24;80.32;102122.28;7406552;19;19946;-78
2023/08/16 03:15:51;;;;;;;9.15;5.03;;;;;;;15.25;80.35;102118.56;7407503;19;19915;-78
2023/08/16 03:18:19;;;;;;;9.10;4.55;;;;;;;15.22;80.37;102113.50;7406745;19;19915;-78
2023/08/16 03:20:48;;;;;;;5.80;4.57;;;;;;;15.20;80.77;102114.69;7407266;19;19946;-78
2023/08/16 03:23:19;;;;;;;8.48;5.03;;;;;;;15.22;81.61;102121.63;7406899;19;19922;-78
2023/08/16 03:25:48;;;;;;;6.28;4.45;;;;;;;15.24;81.50;102124.16;7407045;19;20289;-78
2023/08/16 03:28:16;;;;;;;7.70;4.50;;;;;;;15.24;81.46;102122.28;7406555;19;19915;-78
2023/08/16 03:30:45;;;;;;;7.53;4.75;;;;;;;15.27;81.88;102129.25;7407052;19;19914;-78
2023/08/16 03:33:14;;;;;;;8.93;4.57;;;;;;;15.27;82.14;102145.53;7404593;19;19922;-78
2023/08/16 03:35:42;;;;;;;5.68;4.05;;;;;;;15.28;82.10;102158.91;7406652;19;19915;-78
2023/08/16 03:38:11;;;;;;;10.18;4.72;;;;;;;15.29;82.35;102155.19;7403879;19;19923;-78
2023/08/16 03:40:42;;;;;;;9.70;4.72;;;;;;;15.33;82.71;102161.97;7404684;19;19919;-78
2023/08/16 03:43:12;;;;;;;7.50;4.57;;;;;;;15.35;82.28;102162.66;7406287;19;19945;-78
2023/08/16 03:45:40;;;;;;;9.40;5.15;;;;;;;15.35;82.10;102164.50;7406788;19;19915;-78
2023/08/16 03:48:09;;;;;;;7.20;4.50;;;;;;;15.33;82.38;102161.09;7405732;19;19919;-78
2023/08/16 03:50:38;;;;;;;8.20;4.45;;;;;;;15.33;82.14;102166.53;7405876;19;19919;-78
2023/08/16 03:53:06;;;;;;;5.85;4.43;;;;;;;15.33;81.98;102166.53;7403875;19;19919;-78
2023/08/16 03:55:35;;;;;;;7.45;4.95;;;;;;;15.32;82.38;102170.28;7405624;19;19910;-78
2023/08/16 03:58:06;;;;;;;6.68;4.57;;;;;;;15.30;82.63;102162.31;7405717;19;19950;-79
2023/08/16 04:00:35;;;;;;;9.32;4.75;;;;;;;15.29;83.01;102174.19;7405950;19;19914;-78
2023/08/16 04:03:05;;;;;;;8.07;4.55;;;;;;;15.31;82.87;102171.31;7405945;19;20549;-78
2023/08/16 04:05:33;;;;;;;6.85;4.28;;;;;;;15.32;82.91;102165.69;7405672;19;19934;-77
2023/08/16 04:08:05;;;;;;;8.23;5.07;;;;;;;15.31;82.65;102164.03;7405709;19;19915;-78
2023/08/16 04:10:33;;;;;;;10.25;4.10;;;;;;;15.32;83.11;102164.84;7405050;19;19942;-78
2023/08/16 04:13:02;;;;;;;8.77;4.47;;;;;;;15.32;83.67;102171.13;7403014;19;19942;-78
2023/08/16 04:15:33;;;;;;;7.18;4.78;;;;;;;15.31;82.98;102169.47;7404795;19;19927;-78
2023/08/16 04:18:02;;;;;;;8.45;4.95;;;;;;;15.32;83.45;102167.56;7404625;19;19954;-78
2023/08/16 04:20:31;;;;;;;8.98;5.20;;;;;;;15.32;83.81;102176.56;7405430;19;19922;-78
2023/08/16 04:23:00;;;;;;;9.25;6.15;;;;;;;15.33;83.37;102180.97;7405257;19;19926;-78
2023/08/16 04:25:28;;;;;;;7.30;4.82;;;;;;;15.32;83.14;102171.13;7404690;19;19923;-78
2023/08/16 04:27:57;;;;;;;10.05;4.93;;;;;;;15.32;83.11;102176.56;7404654;19;19915;-78
2023/08/16 04:30:25;;;;;;;6.65;4.65;;;;;;;15.33;83.36;102172.81;7405068;19;19926;-79
2023/08/16 04:32:57;;;;;;;7.03;5.07;;;;;;;15.32;83.39;102181.97;7403915;19;19919;-78
2023/08/16 04:35:26;;;;;;;7.82;4.45;;;;;;;15.32;83.32;102181.97;7405363;19;20030;-78
2023/08/16 04:37:54;;;;;;;8.77;4.68;;;;;;;15.32;82.79;102179.28;7401922;19;19950;-78
2023/08/16 04:40:23;;;;;;;7.65;4.68;;;;;;;15.31;83.59;102196.59;7404222;19;19914;-78
2023/08/16 04:42:51;;;;;;;8.05;4.57;;;;;;;15.32;83.44;102192.84;7405255;19;19922;-77
2023/08/16 04:45:21;;;;;;;6.90;4.97;;;;;;;15.35;83.03;102194.38;7404555;19;19930;-78
2023/08/16 04:47:49;;;;;;;7.07;4.53;;;;;;;15.35;83.19;102191.66;7404298;19;19915;-78
2023/08/16 04:50:21;;;;;;;7.70;5.00;;;;;;;15.35;83.13;102197.94;7404662;19;19938;-79
2023/08/16 04:52:49;;;;;;;7.40;4.35;;;;;;;15.34;83.40;102190.81;7402370;19;19914;-78
2023/08/16 04:55:18;;;;;;;6.57;4.68;;;;;;;15.36;83.69;102193.34;7410052;19;19915;-78
2023/08/16 04:57:47;;;;;;;6.38;4.28;;;;;;;15.37;83.64;102190.44;7407086;19;19917;-79
2023/08/16 05:00:16;;;;;;;7.47;4.50;;;;;;;15.41;83.55;102196.38;7405423;19;19911;-78
2023/08/16 05:02:44;;;;;;;7.88;4.57;;;;;;;15.43;83.58;102200.63;7407449;19;19923;-78
2023/08/16 05:05:13;;;;;;;6.20;4.72;;;;;;;15.45;83.58;102219.44;7407301;19;19929;-78
2023/08/16 05:07:44;;;;;;;8.65;4.90;;;;;;;15.44;83.89;102215.88;7406418;19;20370;-78
2023/08/16 05:10:13;;;;;;;7.35;4.22;;;;;;;15.46;84.11;102221.13;7405620;19;19915;-78
2023/08/16 05:12:42;;;;;;;6.25;4.32;;;;;;;15.48;83.76;102223.69;7405764;19;19914;-78
2023/08/16 05:15:12;;;;;;;8.57;5.03;;;;;;;15.50;84.03;102222.50;7403922;19;19938;-78
2023/08/16 05:17:41;;;;;;;7.95;4.68;;;;;;;15.51;83.88;102223.34;7403655;19;19919;-78
2023/08/16 05:20:11;;;;;;;6.25;4.57;;;;;;;15.54;83.86;102223.00;7404135;19;19978;-79
2023/08/16 05:22:40;;;;;;;6.90;4.40;;;;;;;15.56;83.74;102223.69;7403780;19;19938;-78
2023/08/16 05:25:12;;;;;;;7.50;5.03;;;;;;;15.58;84.42;102227.06;7403373;19;19919;-78
2023/08/16 05:27:40;;;;;;;6.18;4.47;;;;;;;15.59;84.17;102235.03;7403431;19;20316;-78
2023/08/16 05:30:10;;;;;;;7.18;4.10;;;;;;;15.62;84.08;102242.00;7403067;19;19922;-78
2023/08/16 05:32:39;;;;;;;7.18;4.72;;;;;;;15.62;84.49;102237.38;7402791;19;19928;-78
2023/08/16 05:35:08;;;;;;;8.43;4.40;;;;;;;15.65;84.55;102242.50;7403470;19;20389;-79
2023/08/16 05:37:36;;;;;;;6.93;4.72;;;;;;;15.67;84.44;102240.44;7402835;19;19922;-79
2023/08/16 05:40:06;;;;;;;7.32;4.68;;;;;;;15.68;84.55;102246.72;7403924;19;19911;-78
2023/08/16 05:42:38;;;;;;;6.72;4.60;;;;;;;15.69;84.40;102242.97;7405879;19;19923;-78
2023/08/16 05:45:08;;;;;;;6.63;4.68;;;;;;;15.69;84.48;102238.41;7403552;19;19918;-78
2023/08/16 05:47:37;;;;;;;7.43;4.63;;;;;;;15.71;84.54;102230.03;7402991;19;20276;-78
2023/08/16 05:50:06;;;;;;;7.30;4.72;;;;;;;15.72;84.62;102239.91;7402561;19;20369;-79
2023/08/16 05:52:35;;;;;;;6.80;4.32;;;;;;;15.73;84.41;102231.59;7402468;19;19953;-77
2023/08/16 05:55:04;;;;;;;6.72;4.68;;;;;;;15.73;84.76;102228.88;7403056;19;19923;-78
2023/08/16 05:57:32;;;;;;;7.13;5.00;;;;;;;15.77;85.05;102232.06;7402743;19;20099;-78
2023/08/16 06:00:04;;;;;;;6.90;5.13;;;;;;;15.84;84.75;102241.19;7402330;19;19930;-78
2023/08/16 06:02:33;;;;;;;;;;;;;;;15.73;86.27;102241.59;7405605;19;19914;-78
2023/08/16 06:05:01;;;;;;;8.70;4.13;;;;;;;15.96;84.37;102245.22;7401211;19;19914;-77
2023/08/16 06:07:30;;;;;;;8.77;4.95;;;;;;;16.03;84.47;102243.47;7407921;19;20276;-78
2023/08/16 06:09:59;;;;;;;7.47;4.50;;;;;;;16.12;84.58;102253.28;7403518;19;19914;-78
2023/08/16 06:12:28;;;;;;;8.05;5.07;;;;;;;16.19;84.28;102254.22;7404523;19;19914;-78
2023/08/16 06:14:56;;;;;;;7.65;4.70;;;;;;;16.24;84.02;102249.09;7403672;19;19919;-78
2023/08/16 06:17:28;;;;;;;11.32;5.30;;;;;;;16.32;83.96;102250.91;7403106;19;19942;-78
2023/08/16 06:19:57;;;;;;;7.45;4.65;;;;;;;16.38;84.19;102250.19;7402349;19;19919;-78
2023/08/16 06:22:25;;;;;;;6.20;4.53;;;;;;;16.48;84.17;102260.84;7401600;19;19911;-78
2023/08/16 06:24:54;;;;;;;7.68;4.55;;;;;;;16.55;83.89;102264.53;7402032;19;19938;-78
2023/08/16 06:27:23;;;;;;;8.05;5.07;;;;;;;16.63;83.60;102264.47;7401455;19;19922;-78
2023/08/16 06:29:52;;;;;;;7.93;4.68;;;;;;;16.71;83.91;102267.97;7402051;19;19918;-78
2023/08/16 06:32:20;;;;;;;5.32;3.70;;;;;;;16.79;83.45;102258.88;7401593;19;19911;-78
2023/08/16 06:34:51;;;;;;;5.75;3.83;;;;;;;16.86;83.41;102265.31;7400847;19;19923;-77
2023/08/16 06:37:20;;;;;;;;;;;;;;;16.75;84.43;102265.72;7402445;19;19930;-78
2023/08/16 06:39:49;;;;;;;7.47;3.53;;;;;;;16.95;83.02;102275.09;7400202;19;19914;-78
2023/08/16 06:42:18;;;;;;;5.97;3.53;;;;;;;17.03;83.03;102277.72;7402627;19;20614;-78
2023/08/16 06:44:47;;;;;;;5.93;3.67;;;;;;;17.10;83.42;102289.56;7401755;19;20762;-78
2023/08/16 06:47:36;;;;;;;8.48;3.70;;;;;;;17.17;83.59;102278.78;7400207;19;20292;-78
2023/08/16 06:50:09;;;;;;;6.38;4.07;;;;;;;17.24;83.82;102286.03;7401356;19;19907;-78
2023/08/16 06:52:57;;;;;;;7.72;4.22;;;;;;;17.31;83.86;102287.97;7399204;19;19921;-78
2023/08/16 06:55:26;;;;;;;9.00;4.22;;;;;;;17.36;83.67;102289.13;7401477;19;19914;-77
2023/08/16 06:57:55;;;;;;;6.78;3.00;;;;;;;17.38;83.84;102287.06;7401086;19;19923;-78
2023/08/16 07:00:23;;;;;;;6.00;3.20;;;;;;;17.43;83.99;102291.97;7400314;19;20253;-78
2023/08/16 07:02:53;;;;;;;7.97;3.10;;;;;;;17.48;83.48;102286.78;7401233;19;19950;-78
2023/08/16 07:05:25;;;;;;;9.75;3.47;;;;;;;17.52;83.42;102288.94;7401323;19;19922;-78
2023/08/16 07:07:54;;;;;;;7.93;3.40;;;;;;;17.57;83.72;102293.81;7401257;19;19980;-77
2023/08/16 07:10:22;;;;;;;6.75;3.95;;;;;;;17.61;82.80;102290.56;7400414;19;19936;-78
2023/08/16 07:12:51;;;;;;;9.18;3.55;;;;;;;17.66;82.74;102295.44;7398654;19;20383;-77
2023/08/16 07:15:20;;;;;;;6.53;4.05;;;;;;;17.71;82.79;102287.56;7402696;19;19930;-78
2023/08/16 07:17:48;;;;;;;8.55;4.68;;;;;;;17.74;82.43;102295.34;7406095;19;19918;-78
2023/08/16 07:20:17;;;;;;;8.63;3.78;;;;;;;17.79;82.37;102297.50;7406780;19;20406;-78
2023/08/16 07:22:48;;;;;;;7.40;4.15;;;;;;;17.80;82.16;102297.31;7406286;19;19917;-78
2023/08/16 07:25:17;;;;;;;4.97;4.20;;;;;;;17.84;82.40;102300.50;7407582;19;19918;-78
2023/08/16 07:27:45;;;;;;;6.65;3.78;;;;;;;17.90;81.86;102303.34;7407291;19;19936;-78
2023/08/16 07:30:15;;;;;;;7.95;3.80;;;;;;;17.97;81.88;102297.97;7407065;19;19918;-78
2023/08/16 07:32:43;;;;;;;6.90;4.25;;;;;;;18.09;81.61;102310.91;7406110;19;19910;-78
2023/08/16 07:35:12;;;;;;;6.28;3.72;;;;;;;18.21;81.58;102305.78;7407572;19;19915;-78
2023/08/16 07:37:41;;;;;;;5.35;3.75;;;;;;;18.35;81.16;102302.19;7405520;19;19941;-78
2023/08/16 07:40:13;;;;;;;9.07;3.97;;;;;;;18.47;80.42;102302.50;7405298;19;19914;-77
2023/08/16 07:42:43;;;;;;;5.85;2.60;;;;;;;18.56;79.63;102306.84;7405794;19;19915;-78
2023/08/16 07:45:12;;;;;;;6.45;2.92;;;;;;;18.68;79.17;102309.91;7405275;19;19926;-79
2023/08/16 07:47:41;;;;;;;4.88;2.45;;;;;;;18.78;79.29;102314.00;7405373;19;19937;-78
2023/08/16 07:50:11;;;;;;;5.40;2.35;;;;;;;18.90;78.79;102317.03;7405262;19;19930;-79
2023/08/16 07:52:40;;;;;;;4.03;1.83;;;;;;;18.99;78.63;102318.56;7405292;19;19923;-79
2023/08/16 07:55:12;;;;;;;3.95;1.60;;;;;;;19.07;78.47;102312.97;7406181;19;19911;-79
2023/08/16 07:57:40;;;;;;;4.65;1.80;;;;;;;19.14;77.06;102323.97;7405766;19;19915;-78
2023/08/16 08:00:12;;;;;;;4.90;1.40;;;;;;;19.15;76.14;102325.66;7405405;19;19914;-78
2023/08/16 08:02:41;;;;;;;8.18;2.60;;;;;;;19.13;75.50;102331.31;7406109;19;20336;-78
2023/08/16 08:05:10;;;;;;;2.60;1.30;;;;;;;19.14;75.70;102332.16;7405741;19;19919;-78
2023/08/16 08:07:39;;;;;;;4.07;1.48;;;;;;;19.13;75.71;102334.03;7406185;19;20229;-79
2023/08/16 08:10:09;;;;;;;3.13;2.25;;;;;;;19.10;75.35;102342.66;7404046;19;19918;-79
2023/08/16 08:12:40;;;;;;;8.63;1.63;;;;;;;19.08;75.46;102341.13;7403013;19;20340;-78
2023/08/16 08:15:09;;;;;;;3.53;1.50;;;;;;;19.12;75.17;102340.53;7403625;19;19938;-79
2023/08/16 08:17:37;;;;;;;4.68;1.33;;;;;;;19.21;75.36;102346.72;7403202;19;19915;-79
2023/08/16 08:20:14;;;;;;;2.75;1.40;;;;;;;19.34;74.64;102352.28;7405190;19;19926;-78
2023/08/16 08:22:42;;;;;;;2.28;0.82;;;;;;;19.42;73.17;102346.66;7404249;19;19919;-78
2023/08/16 08:25:11;;;;;;;1.90;0.82;;;;;;;19.49;72.88;102344.88;7404085;19;19914;-78
2023/08/16 08:27:42;;;;;;;3.63;1.15;;;;;;;19.54;72.00;102345.13;7400632;19;19923;-78
2023/08/16 08:30:14;;;;;;;1.63;0.85;;;;;;;19.60;71.78;102349.78;7402920;19;19926;-78
2023/08/16 08:32:43;;;;;;;2.42;0.77;;;;;;;19.67;72.31;102355.28;7402480;19;19971;-78
2023/08/16 08:35:12;;;;;;;4.10;1.00;;;;;;;19.72;72.08;102358.25;7402928;19;19935;-78
2023/08/16 08:37:41;;;;;;;3.63;0.80;;;;;;;19.73;71.25;102363.53;7400893;19;19930;-78
2023/08/16 08:40:10;;;;;;;2.03;0.90;;;;;;;19.76;71.57;102368.59;7401479;19;19919;-77
2023/08/16 08:42:44;;;;;;;2.95;0.88;;;;;;;19.79;70.60;102359.16;7402425;19;19919;-77
2023/08/16 08:45:16;;;;;;;3.47;1.05;;;;;;;19.79;70.83;102361.88;7403923;19;19910;-77
2023/08/16 08:47:46;;;;;;;2.80;0.90;;;;;;;19.78;71.22;102361.03;7403068;19;19923;-77
2023/08/16 08:50:16;;;;;;;2.13;0.90;;;;;;;19.78;71.09;102368.38;7402047;19;20371;-77
2023/08/16 08:52:51;;;;;;;2.05;0.90;;;;;;;19.82;71.30;102367.78;7402271;19;19978;-78
2023/08/16 08:55:20;;;;;;;2.45;0.98;;;;;;;19.86;70.44;102377.28;7402974;19;20244;-77
2023/08/16 08:57:53;;;;;;;1.70;1.10;;;;;;;19.93;69.92;102372.69;7402763;19;19922;-77
2023/08/16 09:00:23;;;;;;;3.25;1.00;;;;;;;20.03;68.76;102371.47;7401969;19;19921;-77
2023/08/16 09:02:53;;;;;;;2.78;1.23;;;;;;;20.13;68.76;102378.25;7402010;19;19922;-77
2023/08/16 09:05:25;;;;;;;10.63;1.60;;;;;;;20.23;68.84;102370.53;7403612;19;20333;-77
2023/08/16 09:07:54;;;;;;;4.22;1.10;;;;;;;20.30;68.25;102368.69;7402161;19;19922;-77
2023/08/16 09:10:24;;;;;;;2.95;1.38;;;;;;;20.40;68.03;102375.69;7401876;19;19950;-77
2023/08/16 09:12:55;;;;;;;4.32;0.95;;;;;;;20.47;67.94;102377.38;7402240;19;19933;-77
2023/08/16 09:15:24;;;;;;;;;;;;;;;20.42;66.25;102376.28;7405179;19;19953;-77
2023/08/16 09:17:53;;;;;;;2.13;0.98;;;;;;;20.61;67.14;102386.47;7403017;19;19914;-77
2023/08/16 09:20:23;;;;;;;3.75;1.00;;;;;;;20.71;66.52;102370.50;7408223;19;19918;-77
2023/08/16 09:22:51;;;;;;;1.70;1.02;;;;;;;20.82;65.89;102376.22;7410669;19;19946;-77
2023/08/16 09:25:21;;;;;;;2.35;0.90;;;;;;;20.93;65.87;102371.16;7410953;19;20363;-77
2023/08/16 09:27:49;;;;;;;2.03;0.70;;;;;;;21.03;65.46;102371.59;7406717;19;19950;-77
2023/08/16 09:30:23;;;;;;;4.93;1.30;;;;;;;21.11;64.99;102377.72;7402691;19;20306;-77
2023/08/16 09:32:54;;;;;;;2.10;1.10;;;;;;;21.21;64.71;102378.19;7402221;19;19918;-77
2023/08/16 09:35:29;;;;;;;2.25;0.80;;;;;;;21.31;64.19;102375.03;7401324;19;19914;-77
2023/08/16 09:37:58;;;;;;;2.90;1.00;;;;;;;21.46;64.46;102377.53;7399711;19;20320;-77
2023/08/16 09:40:27;;;;;;;1.40;1.00;;;;;;;21.51;64.83;102378.59;7399546;19;19986;-77
2023/08/16 09:43:01;;;;;;;1.98;1.00;;;;;;;21.57;64.00;102379.63;7400635;19;19919;-77
2023/08/16 09:45:34;;;;;;;6.13;1.65;;;;;;;21.71;64.79;102373.06;7400571;19;19911;-77
2023/08/16 09:48:04;;;;;;;4.40;0.95;;;;;;;21.78;62.84;102371.16;7400632;19;19919;-77
2023/08/16 09:50:36;;;;;;;2.65;0.88;;;;;;;21.86;63.35;102373.66;7400797;19;19922;-77
2023/08/16 09:53:06;;;;;;;3.70;1.42;;;;;;;21.99;62.93;102367.31;7400271;19;19965;-77
2023/08/16 09:55:36;;;;;;;1.85;0.68;;;;;;;22.11;63.11;102377.41;7400310;19;19922;-77
2023/08/16 09:58:07;;;;;;;3.22;1.10;;;;;;;22.26;63.25;102371.66;7400163;19;19919;-77
2023/08/16 10:00:40;;;;;;;4.20;0.90;;;;;;;22.41;60.81;102366.72;7400473;19;19922;-76
2023/08/16 10:03:08;;;;;;;2.30;0.95;;;;;;;22.53;61.96;102364.97;7400030;19;19915;-77
2023/08/16 10:05:37;;;;;;;4.60;1.63;;;;;;;22.37;59.96;102360.00;7402228;19;19940;-77
2023/08/16 10:08:09;;;;;;;1.10;0.88;;;;;;;22.16;61.38;102363.88;7399945;19;20006;-77
2023/08/16 10:10:38;;;;;;;2.17;0.70;;;;;;;22.02;61.79;102364.16;7399873;19;19910;-77
2023/08/16 10:13:11;;;;;;;1.73;0.88;;;;;;;21.86;61.22;102362.69;7399436;19;20344;-77
2023/08/16 10:15:45;;;;;;;3.10;1.10;;;;;;;22.05;61.09;102360.97;7400417;19;19922;-77
2023/08/16 10:18:15;;;;;;;5.13;1.10;;;;;;;22.22;60.75;102353.91;7401046;19;19914;-78
2023/08/16 10:20:47;;;;;;;1.88;0.82;;;;;;;22.35;60.21;102356.59;7399331;19;19921;-77
2023/08/16 10:23:21;;;;;;;1.75;0.90;;;;;;;22.46;59.33;102355.94;7400124;19;19946;-77
2023/08/16 10:25:54;;;;;;;1.83;0.68;;;;;;;22.57;59.14;102355.22;7400873;19;19946;-78
2023/08/16 10:28:24;;;;;;;1.98;0.65;;;;;;;22.72;59.17;102357.72;7399884;19;19923;-77
2023/08/16 10:31:00;;;;;;;3.05;0.90;;;;;;;22.87;57.13;102360.97;7399303;19;19919;-78
2023/08/16 10:33:36;;;;;;;1.92;0.80;;;;;;;22.99;55.88;102336.38;7398968;19;19910;-78
2023/08/16 10:36:06;;;;;;;2.78;0.70;;;;;;;23.05;55.66;102341.81;7399292;19;19956;-77
2023/08/16 10:38:38;;;;;;;3.03;0.60;;;;;;;23.13;57.49;102346.19;7398715;19;19919;-78
2023/08/16 10:41:13;;;;;;;1.63;0.85;;;;;;;22.97;56.47;102341.25;7396964;19;19942;-78
2023/08/16 10:43:48;;;;;;;4.18;1.27;;;;;;;23.11;56.81;102334.59;7398721;19;19918;-78
2023/08/16 10:46:31;;;;;;;1.95;0.70;;;;;;;23.25;57.35;102329.81;7399011;19;19915;-78
2023/08/16 10:49:01;;;;;;;2.97;0.70;;;;;;;23.50;57.38;102342.50;7398436;19;20340;-78
2023/08/16 10:51:31;;;;;;;2.20;0.80;;;;;;;23.63;56.49;102336.03;7404867;19;19941;-78
2023/08/16 10:54:00;;;;;;;1.38;0.50;;;;;;;23.31;55.81;102342.63;7404322;19;20258;-78
2023/08/16 10:56:44;;;;;;;2.88;0.70;;;;;;;22.98;55.27;102340.19;7405623;19;20324;-78
2023/08/16 10:59:13;;;;;;;3.65;0.93;;;;;;;23.10;56.48;102330.16;7405044;19;19919;-77
2023/08/16 11:01:50;;;;;;;3.95;0.80;;;;;;;23.24;57.00;102328.13;7404730;19;19922;-77
2023/08/16 11:04:19;;;;;;;;;;;;;;;23.34;56.66;102336.72;7408102;19;20270;-78
2023/08/16 11:06:47;;;;;;;2.70;0.80;;;;;;;23.55;56.07;102329.97;7404886;19;19925;-78
2023/08/16 11:09:16;;;;;;;1.27;0.60;;;;;;;23.68;55.52;102338.09;7405095;19;19938;-78
2023/08/16 11:11:48;;;;;;;2.22;0.93;;;;;;;23.82;55.06;102339.59;7404907;19;19918;-78
2023/08/16 11:14:17;;;;;;;2.95;0.82;;;;;;;23.96;55.28;102339.22;7403752;19;19914;-78
2023/08/16 11:16:48;;;;;;;1.40;1.00;;;;;;;24.08;53.94;102342.03;7405414;19;19930;-78
2023/08/16 11:19:18;;;;;;;1.70;0.70;;;;;;;24.19;54.37;102330.31;7404966;19;19946;-78
2023/08/16 11:21:48;;;;;;;1.67;0.93;;;;;;;24.34;53.77;102346.41;7404641;19;19946;-78
2023/08/16 11:24:17;;;;;;;1.60;0.60;;;;;;;24.39;54.18;102343.78;7405014;19;19990;-78
2023/08/16 11:26:45;;;;;;;1.42;0.73;;;;;;;24.38;53.49;102347.63;7404858;19;19918;-78
2023/08/16 11:29:14;;;;;;;0.80;0.60;;;;;;;24.28;54.26;102350.94;7404718;19;19919;-78
2023/08/16 11:31:43;;;;;;;1.38;0.73;;;;;;;24.24;53.48;102346.13;7404333;19;20587;-78
2023/08/16 11:34:14;;;;;;;0.88;0.60;;;;;;;24.13;54.51;102344.94;7403493;19;19927;-78
2023/08/16 11:36:43;;;;;;;1.80;0.80;;;;;;;24.09;54.62;102352.00;7403372;19;19922;-77
2023/08/16 11:39:11;;;;;;;3.15;0.90;;;;;;;24.33;53.62;102342.78;7403649;19;19974;-77